logo
Search for airport 
image banner adimage banner adimage banner ad
image banner ad

EPBO - Borsk

Located in Borsk, Poland

ICAO - , IATA -

Data provided by Airmate  

General information

Coordinates: N53°57'4" E17°56'52"
Elevation is 466 feet MSL.
Magnetic variation is 4.0000° East
View others Airports in Pomerania

Operational data

Special qualification required
Current time UTC:
Current local time:
Weather at : EPCE - Cewice ( 53 km )
TAF: TAF EPCE 250500Z 2506/2518 VRB02KT CAVOK BECMG 2509/2511 10010KT
View NOTAMs / SUP AIP / TFR affecting this airport [VIEW]
Communications frequencies: [VIEW]

Runways:

RWY identifierQFULength (ft)Width (ft)SurfaceLDA (ft)
10106°4921131CONC
28286°4921131CONC4921

Airport contact information

Address: Borsk Poland

Satellite view of EPBO